Flight Number: AVA1799 Duration: 1:20
Departure: Stavanger Sola (ENZV) at 17:40 Distance: 426.518 Nm
Arrival: Vagar (EKVG) at 19:00 Equipment: B737

Weather Information
Stavanger / Sola, Norway (ENZV) 58-53N 005-38E 9M Apr 14, 2024 - 09:50 PM EDT / 2024.04.15 0150 UTC
Wind: from the SSE (150 degrees) at 9 MPH (8 KT):0
Visibility: greater than 7 mile(s):0 Temperature: 39 F (4 C) Dew Point: 35 F (2 C) Relative Humidity: 86% Pressure (altimeter): 29.68 in. Hg (1005 hPa)
ob: ENZV 150150Z AUTO 15008KT 9999 NCD 04/02 Q1005 cycle: 2
Sunrise: 04:25 Sunset: 18:48 (UTC)

Soervaag / Vagar, Denmark (EKVG) 62-04N 007-17W 92M Apr 14, 2024 - 09:50 PM EDT / 2024.04.15 0150 UTC
Wind: from the E (090 degrees) at 8 MPH (7 KT):0
Visibility: greater than 7 mile(s):0
Sky conditions: mostly cloudy Temperature: 42 F (6 C) Dew Point: 37 F (3 C) Relative Humidity: 81% Pressure (altimeter): 29.26 in. Hg (0991 hPa)
ob: EKVG 150150Z AUTO 09007KT 9999 BKN032/// 06/03 Q0991 RMK FEW015/// SCT032/// BKN140/// WIND SKEID 12011KT cycle: 2
Sunrise: 05:06 Sunset: 19:50 (UTC)

TAF:2023/02/12 15:15 TAF COR TAF COR EKVG 121514Z 1215/1303 22015G28KT 9999 OVC012 TEMPO 1215/1224 4500 DZ BR OVC007

Previous Pireps for this route
Date Flightnr Aircraft Flight time Fuel used Landing rate On time
2017-10-05AVA1799B7371.3466000No
2017-11-27AVA1224ATR721.4519000Yes
2020-03-28AVX9600B1900D3.151295-397Charter
(pireps marked green are flown by you)

Route map